createdAt,value
2018-09-15T00:00:07.555Z,9.80
2018-09-15T00:02:35.928Z,9.80
2018-09-15T00:05:04.570Z,9.70
2018-09-15T00:07:33.007Z,9.60
2018-09-15T00:10:01.339Z,9.60
2018-09-15T00:12:29.667Z,9.60
2018-09-15T00:14:58.393Z,9.40
2018-09-15T00:17:26.796Z,9.40
2018-09-15T00:19:55.330Z,9.40
2018-09-15T00:22:23.649Z,9.40
2018-09-15T00:24:51.992Z,9.40
2018-09-15T00:27:20.325Z,9.30
2018-09-15T00:29:48.832Z,9.20
2018-09-15T00:32:17.562Z,9.20
2018-09-15T00:34:46.412Z,8.90
2018-09-15T00:37:14.728Z,9.00
2018-09-15T00:39:43.046Z,9.00
2018-09-15T00:42:11.416Z,9.00
2018-09-15T00:44:39.866Z,8.90
2018-09-15T00:47:08.189Z,8.80
2018-09-15T00:49:36.553Z,8.80
2018-09-15T00:52:04.962Z,8.80
2018-09-15T00:54:33.262Z,8.70
2018-09-15T00:57:01.897Z,8.60
2018-09-15T00:59:30.289Z,8.60
2018-09-15T01:01:58.832Z,8.50
2018-09-15T01:04:27.161Z,8.50
2018-09-15T01:06:55.470Z,8.60
2018-09-15T01:09:23.798Z,8.50
2018-09-15T01:11:52.195Z,8.50
2018-09-15T01:14:20.642Z,8.50
2018-09-15T01:16:48.865Z,8.40
2018-09-15T01:19:17.181Z,8.40
2018-09-15T01:21:45.519Z,8.30
2018-09-15T01:24:13.953Z,8.30
2018-09-15T01:26:42.416Z,8.30
2018-09-15T01:29:10.757Z,8.30
2018-09-15T01:31:39.057Z,8.30
2018-09-15T01:34:07.390Z,8.30
2018-09-15T01:36:35.872Z,8.30
2018-09-15T01:39:06.322Z,8.30
2018-09-15T01:41:34.670Z,8.50
2018-09-15T01:44:03.219Z,8.70
2018-09-15T01:46:31.593Z,8.70
2018-09-15T01:49:00.044Z,8.70
2018-09-15T01:51:29.022Z,8.70
2018-09-15T01:53:57.436Z,8.70
2018-09-15T01:56:25.868Z,8.60
2018-09-15T01:58:54.366Z,8.50
2018-09-15T02:01:22.698Z,8.40
2018-09-15T02:03:51.030Z,8.40
2018-09-15T02:06:19.377Z,8.40
2018-09-15T02:08:47.798Z,8.40
2018-09-15T02:11:16.066Z,8.40
2018-09-15T02:13:44.373Z,8.40
2018-09-15T02:16:12.669Z,8.40
2018-09-15T02:18:41.061Z,8.20
2018-09-15T02:21:09.384Z,8.40
2018-09-15T02:23:37.706Z,8.30
2018-09-15T02:26:06.128Z,8.20
2018-09-15T02:28:34.629Z,8.10
2018-09-15T02:31:03.005Z,7.90
2018-09-15T02:33:31.354Z,7.70
2018-09-15T02:35:59.769Z,7.60
2018-09-15T02:38:28.290Z,7.60
2018-09-15T02:40:57.028Z,7.60
2018-09-15T02:43:25.387Z,7.60
2018-09-15T02:45:53.708Z,7.60
2018-09-15T02:48:22.033Z,7.70
2018-09-15T02:50:50.358Z,7.80
2018-09-15T02:53:18.685Z,7.90
2018-09-15T02:55:47.084Z,7.90
2018-09-15T02:58:15.421Z,8.00
2018-09-15T03:00:43.837Z,8.10
2018-09-15T03:03:12.150Z,8.20
2018-09-15T03:05:40.517Z,8.30
2018-09-15T03:08:09.043Z,8.40
2018-09-15T03:10:37.382Z,8.50
2018-09-15T03:13:05.942Z,8.60
2018-09-15T03:15:34.307Z,8.70
2018-09-15T03:18:02.610Z,8.80
2018-09-15T03:20:31.573Z,8.90
2018-09-15T03:23:00.256Z,8.90
2018-09-15T03:25:28.584Z,9.00
2018-09-15T03:27:57.009Z,8.90
2018-09-15T03:30:25.565Z,8.90
2018-09-15T03:32:53.888Z,8.90
2018-09-15T03:35:22.225Z,9.00
2018-09-15T03:37:50.497Z,9.00
2018-09-15T03:40:18.825Z,9.00
2018-09-15T03:42:47.400Z,9.00
2018-09-15T03:45:16.045Z,8.90
2018-09-15T03:47:44.372Z,8.80
2018-09-15T03:50:12.691Z,8.70
2018-09-15T03:52:41.022Z,8.60
2018-09-15T03:55:09.329Z,8.50
2018-09-15T03:57:37.731Z,8.50
2018-09-15T04:00:06.210Z,8.40
2018-09-15T04:02:34.580Z,8.40
2018-09-15T04:05:02.947Z,8.40
2018-09-15T04:07:31.273Z,8.40
2018-09-15T04:09:59.668Z,8.40
2018-09-15T04:12:28.061Z,8.40
2018-09-15T04:14:56.381Z,8.40
2018-09-15T04:17:24.808Z,8.30
2018-09-15T04:19:53.252Z,8.30
2018-09-15T04:22:21.677Z,8.30
2018-09-15T04:24:50.001Z,8.20
2018-09-15T04:27:18.299Z,8.10
2018-09-15T04:29:46.643Z,8.00
2018-09-15T04:32:14.940Z,7.90
2018-09-15T04:34:43.431Z,7.80
2018-09-15T04:37:11.778Z,7.80
2018-09-15T04:39:40.063Z,7.80
2018-09-15T04:42:08.378Z,7.70
2018-09-15T04:44:36.729Z,7.70
2018-09-15T04:47:05.237Z,7.70
2018-09-15T04:49:33.572Z,7.70
2018-09-15T04:52:01.900Z,7.70
2018-09-15T04:54:30.230Z,7.80
2018-09-15T04:56:58.798Z,7.90
2018-09-15T04:59:27.185Z,7.90
2018-09-15T05:01:55.532Z,8.00
2018-09-15T05:04:23.899Z,8.00
2018-09-15T05:06:52.410Z,8.10
2018-09-15T05:09:20.909Z,8.20
2018-09-15T05:11:49.304Z,8.20
2018-09-15T05:14:17.651Z,8.20
2018-09-15T05:16:45.971Z,8.20
2018-09-15T05:19:14.359Z,8.30
2018-09-15T05:21:42.690Z,8.30
2018-09-15T05:24:10.983Z,8.40
2018-09-15T05:26:39.295Z,8.40
2018-09-15T05:29:07.614Z,8.40
2018-09-15T05:31:36.171Z,8.40
2018-09-15T05:34:05.587Z,8.40
2018-09-15T05:36:33.953Z,8.50
2018-09-15T05:39:02.612Z,8.40
2018-09-15T05:41:30.973Z,8.40
2018-09-15T05:43:59.385Z,8.30
2018-09-15T05:46:27.727Z,8.20
2018-09-15T05:48:56.266Z,8.20
2018-09-15T05:51:24.579Z,8.20
2018-09-15T05:54:01.253Z,8.20
2018-09-15T05:56:29.744Z,8.30
2018-09-15T05:58:58.243Z,8.40
2018-09-15T06:01:26.611Z,8.40
2018-09-15T06:03:55.156Z,8.50
2018-09-15T06:06:23.546Z,8.70
2018-09-15T06:08:51.910Z,8.90
2018-09-15T06:11:20.209Z,9.00
2018-09-15T06:13:48.716Z,9.10
2018-09-15T06:19:02.565Z,9.60
2018-09-15T06:21:31.067Z,9.90
2018-09-15T06:23:59.526Z,10.30
2018-09-15T06:26:28.066Z,10.40
2018-09-15T06:28:56.619Z,10.50
2018-09-15T06:31:25.046Z,11.30
2018-09-15T06:33:53.385Z,12.10
2018-09-15T06:36:21.848Z,13.10
2018-09-15T06:38:50.218Z,14.30
2018-09-15T06:41:18.688Z,15.30
2018-09-15T06:43:47.209Z,16.50
2018-09-15T06:46:15.569Z,17.50
2018-09-15T06:48:43.904Z,18.60
2018-09-15T06:51:12.297Z,19.50
2018-09-15T06:53:40.656Z,19.70
2018-09-15T06:56:08.986Z,19.50
2018-09-15T06:58:37.663Z,19.20
2018-09-15T07:01:06.005Z,19.20
2018-09-15T07:03:34.336Z,19.20
2018-09-15T07:06:02.700Z,19.30
2018-09-15T07:08:31.035Z,19.40
2018-09-15T07:10:59.409Z,20.00
2018-09-15T07:13:28.070Z,20.60
2018-09-15T07:15:56.673Z,20.80
2018-09-15T07:18:25.156Z,20.70
2018-09-15T07:20:53.551Z,20.20
2018-09-15T07:23:21.935Z,19.10
2018-09-15T07:25:50.299Z,18.60
2018-09-15T07:28:22.327Z,18.70
2018-09-15T07:30:59.695Z,18.80
2018-09-15T07:33:28.002Z,18.60
2018-09-15T07:35:56.341Z,18.70
2018-09-15T07:38:24.870Z,18.50
2018-09-15T07:40:53.304Z,18.90
2018-09-15T07:43:21.664Z,18.30
2018-09-15T07:45:50.038Z,17.70
2018-09-15T07:48:18.640Z,17.60
2018-09-15T07:50:47.010Z,17.70
2018-09-15T07:53:15.649Z,17.90
2018-09-15T07:55:44.045Z,17.80
2018-09-15T07:58:12.629Z,18.20
2018-09-15T08:00:41.233Z,18.60
2018-09-15T08:03:09.779Z,18.20
2018-09-15T08:05:38.207Z,17.80
2018-09-15T08:08:06.814Z,17.50
2018-09-15T08:10:35.268Z,17.50
2018-09-15T08:13:03.820Z,17.50
2018-09-15T08:15:32.235Z,17.40
2018-09-15T08:18:00.580Z,17.50
2018-09-15T08:20:28.963Z,17.20
2018-09-15T08:22:57.414Z,17.00
2018-09-15T08:25:25.857Z,17.10
2018-09-15T08:27:54.315Z,17.10
2018-09-15T08:30:22.729Z,17.10
2018-09-15T08:32:51.279Z,17.10
2018-09-15T08:35:19.719Z,17.20
2018-09-15T08:37:48.130Z,17.50
2018-09-15T08:40:16.485Z,17.60
2018-09-15T08:42:44.832Z,17.40
2018-09-15T08:45:13.370Z,17.40
2018-09-15T08:47:42.034Z,17.10
2018-09-15T08:50:10.436Z,17.20
2018-09-15T08:52:38.844Z,17.20
2018-09-15T08:55:07.276Z,17.30
2018-09-15T08:57:35.761Z,17.10
2018-09-15T09:00:05.294Z,17.20
2018-09-15T09:02:33.700Z,17.30
2018-09-15T09:05:02.080Z,17.70
2018-09-15T09:07:30.474Z,17.90
2018-09-15T09:09:58.892Z,18.20
2018-09-15T09:12:27.275Z,17.90
2018-09-15T09:14:55.859Z,17.80
2018-09-15T09:17:24.230Z,18.10
2018-09-15T09:19:52.912Z,18.20
2018-09-15T09:22:21.357Z,18.30
2018-09-15T09:24:49.721Z,18.20
2018-09-15T09:27:18.142Z,18.10
2018-09-15T09:29:46.555Z,18.50
2018-09-15T09:32:14.981Z,18.40
2018-09-15T09:34:43.430Z,18.50
2018-09-15T09:37:12.094Z,18.40
2018-09-15T09:39:40.451Z,18.20
2018-09-15T09:42:08.902Z,18.10
2018-09-15T09:44:37.403Z,18.60
2018-09-15T09:47:05.951Z,18.50
2018-09-15T09:49:34.287Z,18.20
2018-09-15T09:52:02.757Z,17.70
2018-09-15T09:54:33.886Z,17.70
2018-09-15T09:57:17.264Z,17.80
2018-09-15T09:59:45.676Z,18.10
2018-09-15T10:02:18.705Z,18.40
2018-09-15T10:04:47.111Z,18.50
2018-09-15T10:07:15.621Z,18.40
2018-09-15T10:09:44.123Z,18.50
2018-09-15T10:12:12.463Z,18.60
2018-09-15T10:14:40.921Z,18.20
2018-09-15T10:17:09.394Z,18.00
2018-09-15T10:19:37.727Z,17.50
2018-09-15T10:22:06.205Z,17.50
2018-09-15T10:24:34.950Z,17.40
2018-09-15T10:27:03.631Z,17.70
2018-09-15T10:29:31.959Z,17.90
2018-09-15T10:32:00.471Z,17.90
2018-09-15T10:34:28.816Z,18.00
2018-09-15T10:36:57.415Z,17.70
2018-09-15T10:39:26.182Z,17.50
2018-09-15T10:41:54.614Z,17.60
2018-09-15T10:44:23.179Z,17.80
2018-09-15T10:46:51.815Z,18.10
2018-09-15T10:49:20.198Z,18.10
2018-09-15T10:51:48.616Z,18.00
2018-09-15T10:54:17.016Z,17.90
2018-09-15T10:56:45.471Z,17.80
2018-09-15T10:59:13.819Z,17.50
2018-09-15T11:01:42.295Z,17.40
2018-09-15T11:04:10.816Z,17.60
2018-09-15T11:06:39.177Z,17.70
2018-09-15T11:09:08.926Z,17.20
2018-09-15T11:11:37.430Z,17.20
2018-09-15T11:14:06.539Z,17.00
2018-09-15T11:16:34.958Z,16.80
2018-09-15T11:19:03.331Z,16.80
2018-09-15T11:21:31.689Z,16.90
2018-09-15T11:24:00.072Z,17.20
2018-09-15T11:26:28.484Z,18.00
2018-09-15T11:28:57.027Z,18.40
2018-09-15T11:31:25.356Z,18.90
2018-09-15T11:33:53.778Z,19.40
2018-09-15T11:36:22.112Z,19.70
2018-09-15T11:38:50.495Z,19.90
2018-09-15T11:41:19.717Z,19.90
2018-09-15T11:43:48.263Z,19.70
2018-09-15T11:46:16.652Z,19.70
2018-09-15T11:48:45.481Z,19.60
2018-09-15T11:51:13.940Z,19.00
2018-09-15T11:53:42.419Z,18.80
2018-09-15T11:56:10.843Z,18.70
2018-09-15T11:58:39.272Z,18.40
2018-09-15T12:01:07.677Z,18.30
2018-09-15T12:03:36.054Z,18.10
2018-09-15T12:06:04.567Z,18.10
2018-09-15T12:08:32.969Z,18.00
2018-09-15T12:11:01.369Z,18.00
2018-09-15T12:13:29.774Z,18.20
2018-09-15T12:15:58.157Z,18.30
2018-09-15T12:18:26.534Z,18.60
2018-09-15T12:20:55.051Z,18.70
2018-09-15T12:23:23.476Z,18.70
2018-09-15T12:25:51.910Z,18.90
2018-09-15T12:28:20.296Z,19.10
2018-09-15T12:30:48.814Z,19.30
2018-09-15T12:33:17.229Z,19.20
2018-09-15T12:35:45.755Z,19.10
2018-09-15T12:38:14.147Z,19.20
2018-09-15T12:40:42.593Z,19.10
2018-09-15T12:43:11.007Z,19.30
2018-09-15T12:45:39.448Z,19.80
2018-09-15T12:48:07.892Z,20.10
2018-09-15T12:50:36.272Z,20.40
2018-09-15T12:53:05.586Z,20.10
2018-09-15T12:55:34.014Z,19.60
2018-09-15T12:58:02.360Z,19.50
2018-09-15T13:00:30.745Z,19.60
2018-09-15T13:02:59.409Z,20.00
2018-09-15T13:05:27.822Z,20.90
2018-09-15T13:07:56.284Z,21.70
2018-09-15T13:10:24.664Z,22.00
2018-09-15T13:12:53.057Z,21.50
2018-09-15T13:15:21.475Z,20.40
2018-09-15T13:17:49.783Z,19.90
2018-09-15T13:20:18.161Z,19.40
2018-09-15T13:22:46.565Z,19.50
2018-09-15T13:25:14.974Z,19.80
2018-09-15T13:27:43.409Z,19.90
2018-09-15T13:30:11.844Z,19.80
2018-09-15T13:32:40.296Z,19.80
2018-09-15T13:35:08.754Z,19.80
2018-09-15T13:37:37.268Z,19.80
2018-09-15T13:40:05.725Z,19.70
2018-09-15T13:42:34.604Z,19.70
2018-09-15T13:45:02.976Z,19.70
2018-09-15T13:47:31.362Z,19.70
2018-09-15T13:49:59.708Z,19.40
2018-09-15T13:52:28.131Z,19.20
2018-09-15T13:54:56.635Z,19.00
2018-09-15T13:57:25.017Z,19.10
2018-09-15T13:59:53.464Z,19.20
2018-09-15T14:02:21.825Z,19.40
2018-09-15T14:04:50.302Z,19.00
2018-09-15T14:07:18.666Z,18.70
2018-09-15T14:09:47.661Z,18.70
2018-09-15T14:12:16.041Z,18.50
2018-09-15T14:14:44.430Z,18.70
2018-09-15T14:17:12.820Z,18.90
2018-09-15T14:19:41.232Z,18.90
2018-09-15T14:22:09.680Z,19.90
2018-09-15T14:24:38.046Z,20.10
2018-09-15T14:27:06.518Z,19.80
2018-09-15T14:29:35.224Z,20.50
2018-09-15T14:32:04.125Z,22.90
2018-09-15T14:34:32.818Z,24.40
2018-09-15T14:37:01.245Z,25.60
2018-09-15T14:39:29.854Z,25.90
2018-09-15T14:41:58.190Z,25.20
2018-09-15T14:44:26.572Z,24.40
2018-09-15T14:46:54.997Z,23.20
2018-09-15T14:49:23.415Z,22.00
2018-09-15T14:51:52.362Z,21.50
2018-09-15T14:54:20.815Z,20.80
2018-09-15T14:56:49.313Z,20.30
2018-09-15T14:59:17.702Z,20.00
2018-09-15T15:01:46.164Z,19.60
2018-09-15T15:04:14.578Z,19.50
2018-09-15T15:06:42.961Z,19.30
2018-09-15T15:09:11.785Z,19.50
2018-09-15T15:11:40.449Z,21.00
2018-09-15T15:14:09.156Z,21.20
2018-09-15T15:16:37.602Z,20.60
2018-09-15T15:19:06.545Z,20.20
2018-09-15T15:21:34.938Z,19.50
2018-09-15T15:24:03.577Z,19.20
2018-09-15T15:26:32.036Z,19.20
2018-09-15T15:29:00.359Z,19.00
2018-09-15T15:31:28.763Z,18.80
2018-09-15T15:33:57.244Z,18.70
2018-09-15T15:36:25.675Z,18.80
2018-09-15T15:38:54.087Z,18.70
2018-09-15T15:41:22.511Z,20.00
2018-09-15T15:43:50.938Z,21.50
2018-09-15T15:46:19.272Z,22.20
2018-09-15T15:48:47.782Z,21.70
2018-09-15T15:51:16.459Z,21.30
2018-09-15T15:53:44.833Z,20.70
2018-09-15T15:56:13.258Z,20.30
2018-09-15T15:58:41.848Z,19.90
2018-09-15T16:01:10.122Z,19.60
2018-09-15T16:03:38.493Z,19.20
2018-09-15T16:06:06.886Z,19.00
2018-09-15T16:08:35.288Z,19.00
2018-09-15T16:11:03.790Z,18.80
2018-09-15T16:13:32.150Z,18.60
2018-09-15T16:16:00.501Z,18.50
2018-09-15T16:18:28.862Z,18.60
2018-09-15T16:20:58.246Z,18.60
2018-09-15T16:23:26.565Z,18.30
2018-09-15T16:25:54.956Z,18.30
2018-09-15T16:28:23.354Z,18.40
2018-09-15T16:30:51.798Z,18.30
2018-09-15T16:33:20.197Z,18.50
2018-09-15T16:35:48.569Z,18.70
2018-09-15T16:38:16.979Z,18.90
2018-09-15T16:40:45.405Z,18.80
2018-09-15T16:43:13.796Z,18.90
2018-09-15T16:45:42.192Z,18.80
2018-09-15T16:48:10.607Z,18.70
2018-09-15T16:50:38.954Z,18.50
2018-09-15T16:53:07.370Z,18.40
2018-09-15T16:55:35.741Z,18.10
2018-09-15T16:58:04.286Z,18.30
2018-09-15T17:00:32.774Z,18.00
2018-09-15T17:03:01.360Z,17.90
2018-09-15T17:05:30.235Z,17.80
2018-09-15T17:07:59.092Z,17.70
2018-09-15T17:10:27.687Z,17.60
2018-09-15T17:12:56.310Z,17.60
2018-09-15T17:15:24.638Z,17.50
2018-09-15T17:17:53.127Z,17.30
2018-09-15T17:20:21.631Z,17.20
2018-09-15T17:22:50.792Z,17.20
2018-09-15T17:25:19.367Z,17.10
2018-09-15T17:27:47.754Z,17.00
2018-09-15T17:30:16.255Z,16.90
2018-09-15T17:32:44.686Z,16.80
2018-09-15T17:35:13.217Z,16.70
2018-09-15T17:37:41.609Z,16.50
2018-09-15T17:40:10.037Z,16.20
2018-09-15T17:42:38.551Z,16.10
2018-09-15T17:45:07.071Z,15.90
2018-09-15T17:47:35.471Z,15.70
2018-09-15T17:50:04.302Z,15.50
2018-09-15T17:52:32.792Z,15.40
2018-09-15T17:55:01.611Z,15.30
2018-09-15T17:57:30.362Z,15.40
2018-09-15T17:59:58.899Z,15.40
2018-09-15T18:02:31.132Z,15.40
2018-09-15T18:04:59.572Z,15.40
2018-09-15T18:07:28.007Z,15.40
2018-09-15T18:09:56.452Z,15.30
2018-09-15T18:12:24.841Z,15.30
2018-09-15T18:14:53.259Z,15.30
2018-09-15T18:17:22.272Z,15.20
2018-09-15T18:19:50.741Z,15.20
2018-09-15T18:22:20.301Z,15.20
2018-09-15T18:24:48.762Z,15.00
2018-09-15T18:27:17.189Z,14.90
2018-09-15T18:29:45.575Z,14.70
2018-09-15T18:32:14.307Z,14.50
2018-09-15T18:34:42.825Z,14.40
2018-09-15T18:37:11.467Z,14.40
2018-09-15T18:39:40.275Z,14.40
2018-09-15T18:42:08.688Z,14.40
2018-09-15T18:44:37.090Z,14.40
2018-09-15T18:47:06.461Z,14.30
2018-09-15T18:49:35.827Z,14.30
2018-09-15T18:52:04.397Z,14.30
2018-09-15T18:54:32.897Z,14.30
2018-09-15T18:57:01.514Z,14.10
2018-09-15T18:59:29.888Z,14.00
2018-09-15T19:01:58.657Z,13.80
2018-09-15T19:04:27.053Z,13.70
2018-09-15T19:06:55.479Z,13.60
2018-09-15T19:09:24.747Z,13.50
2018-09-15T19:11:53.543Z,13.40
2018-09-15T19:14:22.055Z,13.40
2018-09-15T19:16:51.573Z,13.40
2018-09-15T19:19:19.993Z,13.30
2018-09-15T19:21:48.861Z,13.20
2018-09-15T19:24:17.371Z,13.10
2018-09-15T19:26:46.176Z,13.00
2018-09-15T19:29:14.670Z,13.00
2018-09-15T19:31:44.000Z,12.90
2018-09-15T19:34:12.666Z,12.70
2018-09-15T19:36:41.152Z,12.60
2018-09-15T19:39:11.972Z,12.60
2018-09-15T19:41:41.503Z,12.50
2018-09-15T19:44:10.078Z,12.40
2018-09-15T19:46:38.963Z,12.20
2018-09-15T19:49:08.243Z,12.30
2018-09-15T19:51:36.855Z,12.20
2018-09-15T19:54:05.719Z,12.10
2018-09-15T19:56:34.166Z,12.10
2018-09-15T19:59:03.284Z,12.00
2018-09-15T20:01:31.815Z,12.00
2018-09-15T20:04:00.182Z,11.90
2018-09-15T20:06:28.661Z,11.80
2018-09-15T20:08:57.281Z,11.70
2018-09-15T20:11:25.760Z,11.60
2018-09-15T20:13:54.204Z,11.60
2018-09-15T20:16:21.531Z,11.60
2018-09-15T20:18:48.962Z,11.60
2018-09-15T20:21:16.271Z,11.70
2018-09-15T20:23:44.711Z,11.70
2018-09-15T20:26:13.399Z,11.70
2018-09-15T20:28:41.878Z,11.70
2018-09-15T20:31:10.277Z,11.70
2018-09-15T20:33:38.687Z,11.60
2018-09-15T20:36:07.597Z,11.50
2018-09-15T20:38:36.202Z,11.40
2018-09-15T20:41:04.705Z,11.40
2018-09-15T20:43:33.155Z,11.20
2018-09-15T20:46:01.627Z,11.20
2018-09-15T20:48:30.047Z,11.00
2018-09-15T20:50:58.433Z,11.00
2018-09-15T20:53:27.368Z,10.90
2018-09-15T20:55:55.749Z,10.90
2018-09-15T20:58:24.118Z,10.90
2018-09-15T21:00:52.764Z,10.80
2018-09-15T21:03:21.179Z,10.70
2018-09-15T21:05:49.518Z,10.70
2018-09-15T21:08:17.896Z,10.70
2018-09-15T21:10:46.363Z,10.40
2018-09-15T21:13:14.759Z,10.40
2018-09-15T21:15:43.307Z,10.30
2018-09-15T21:18:11.759Z,10.20
2018-09-15T21:20:40.110Z,10.20
2018-09-15T21:23:08.506Z,10.20
2018-09-15T21:25:36.888Z,10.10
2018-09-15T21:28:05.668Z,10.00
2018-09-15T21:30:34.048Z,9.90
2018-09-15T21:33:02.420Z,9.90
2018-09-15T21:35:30.767Z,9.90
2018-09-15T21:37:59.118Z,9.80
2018-09-15T21:40:27.533Z,9.80
2018-09-15T21:42:55.866Z,9.80
2018-09-15T21:45:24.344Z,9.80
2018-09-15T21:47:52.719Z,9.80
2018-09-15T21:50:21.189Z,9.80
2018-09-15T21:52:49.553Z,9.80
2018-09-15T21:55:17.885Z,9.80
2018-09-15T21:57:46.255Z,9.80
2018-09-15T22:00:14.578Z,9.70
2018-09-15T22:02:42.907Z,9.70
2018-09-15T22:05:11.254Z,9.70
2018-09-15T22:07:39.599Z,9.70
2018-09-15T22:10:08.046Z,9.80
2018-09-15T22:12:36.422Z,9.60
2018-09-15T22:15:04.789Z,9.70
2018-09-15T22:17:33.128Z,9.70
2018-09-15T22:20:01.512Z,9.60
2018-09-15T22:22:29.971Z,9.60
2018-09-15T22:24:58.328Z,9.60
2018-09-15T22:27:26.699Z,9.50
2018-09-15T22:29:55.200Z,9.40
2018-09-15T22:32:23.701Z,9.30
2018-09-15T22:34:53.288Z,9.20
2018-09-15T22:37:21.603Z,9.10
2018-09-15T22:39:49.938Z,9.10
2018-09-15T22:42:18.385Z,9.00
2018-09-15T22:44:46.777Z,9.00
2018-09-15T22:47:15.141Z,9.10
2018-09-15T22:49:43.534Z,9.00
2018-09-15T22:52:11.842Z,8.90
2018-09-15T22:54:40.195Z,8.80
2018-09-15T22:57:08.590Z,8.80
2018-09-15T22:59:36.966Z,8.70
2018-09-15T23:02:05.341Z,8.70
2018-09-15T23:04:33.689Z,8.70
2018-09-15T23:07:02.043Z,8.70
2018-09-15T23:09:30.417Z,8.70
2018-09-15T23:11:58.710Z,8.70
2018-09-15T23:14:27.042Z,8.70
2018-09-15T23:16:55.380Z,8.80
2018-09-15T23:19:23.693Z,8.80
2018-09-15T23:21:52.040Z,9.00
2018-09-15T23:24:20.375Z,8.80
2018-09-15T23:26:48.694Z,8.80
2018-09-15T23:29:17.045Z,8.70
2018-09-15T23:31:45.384Z,8.70
2018-09-15T23:34:13.709Z,8.70
2018-09-15T23:36:42.052Z,8.70
2018-09-15T23:39:10.382Z,8.60
2018-09-15T23:41:38.743Z,8.60
2018-09-15T23:44:07.052Z,8.60
2018-09-15T23:46:35.381Z,8.60
2018-09-15T23:49:03.680Z,8.40
2018-09-15T23:51:31.980Z,8.40
2018-09-15T23:54:00.318Z,8.50
2018-09-15T23:56:28.636Z,8.40
2018-09-15T23:58:56.960Z,8.40
